Time;durP1;ratioP1;P1;durP2;ratioP2;P2;SDS_P1;SDS_P2;PMS_P1;PMS_P2;Temp;Humidity;BMP_temperature;BMP_pressure;BME280_temperature;BME280_humidity;BME280_pressure;Samples;Min_cycle;Max_cycle;Signal;HPM_P1;HPM_P2
2022/03/02 00:00:08;;;;;;;21.00;15.90;;;;;;101824.27;;;;107084;1276;65926;-33
2022/03/02 00:02:55;;;;;;;22.60;16.90;;;;;;101825.59;;;;106997;1277;64760;-33
2022/03/02 00:05:24;;;;;;;23.30;17.20;;;;;;101825.38;;;;107095;1276;64732;-33
2022/03/02 00:07:51;;;;;;;21.00;16.80;;;;;;101823.88;;;;107078;1276;64769;-33
2022/03/02 00:10:18;;;;;;;25.90;17.50;;;;;;101826.29;;;;107107;1276;65473;-49
2022/03/02 00:12:46;;;;;;;24.00;17.70;;;;;;101826.85;;;;107103;1276;65965;-50
2022/03/02 00:15:13;;;;;;;21.70;16.80;;;;;;101827.08;;;;107124;1276;64798;-50
2022/03/02 00:17:41;;;;;;;25.60;18.50;;;;;;101824.09;;;;107114;1276;64857;-48
2022/03/02 00:20:08;;;;;;;24.90;18.20;;;;;;101822.90;;;;106998;1278;64892;-31
2022/03/02 00:22:37;;;;;;;27.00;18.10;;;;;;101816.81;;;;107075;1276;64755;-31
2022/03/02 00:25:04;;;;;;;26.90;18.70;;;;;;101819.21;;;;107117;1276;66531;-47
2022/03/02 00:27:31;;;;;;;25.30;19.60;;;;;;101817.15;;;;107115;1277;64770;-47
2022/03/02 00:29:59;;;;;;;27.50;19.00;;;;;;101817.02;;;;107108;1276;64768;-32
2022/03/02 00:32:26;;;;;;;27.10;20.20;;;;;;101814.99;;;;107097;1276;64886;-32
2022/03/02 00:34:53;;;;;;;28.40;20.40;;;;;;101813.14;;;;107115;1276;64766;-54
2022/03/02 00:37:20;;;;;;;27.40;19.50;;;;;;101814.20;;;;107110;1276;65842;-48
2022/03/02 00:39:47;;;;;;;28.30;20.50;;;;;;101812.81;;;;107001;1276;64796;-48
2022/03/02 00:42:15;;;;;;;28.50;20.60;;;;;;101812.23;;;;106999;1278;64900;-47
2022/03/02 00:44:42;;;;;;;29.10;20.30;;;;;;101810.63;;;;106990;1278;64893;-49
2022/03/02 00:47:10;;;;;;;28.90;20.30;;;;;;101809.36;;;;107014;1277;64855;-33
2022/03/02 00:49:38;;;;;;;27.70;20.40;;;;;;101808.71;;;;107103;1276;64986;-33
2022/03/02 00:52:09;;;;;;;29.40;20.00;;;;;;101804.75;;;;106981;1277;64772;-33
2022/03/02 00:54:37;;;;;;;29.70;21.20;;;;;;101800.23;;;;107084;1277;64751;-39
2022/03/02 00:57:04;;;;;;;30.70;20.60;;;;;;101798.23;;;;107086;1276;64987;-54
2022/03/02 00:59:32;;;;;;;27.90;20.50;;;;;;101799.11;;;;107112;1276;64721;-48
2022/03/02 01:01:59;;;;;;;29.60;21.00;;;;;;101797.98;;;;107137;1276;67871;-48
2022/03/02 01:04:27;;;;;;;28.80;21.40;;;;;;101800.84;;;;107075;1276;64959;-52
2022/03/02 01:06:54;;;;;;;29.10;21.30;;;;;;101802.49;;;;107088;1278;65454;-31
2022/03/02 01:09:21;;;;;;;29.70;20.90;;;;;;101799.23;;;;107068;1276;64771;-32
2022/03/02 01:11:49;;;;;;;28.90;21.50;;;;;;101796.98;;;;107127;1276;64936;-47
2022/03/02 01:14:16;;;;;;;27.20;20.30;;;;;;101794.98;;;;106997;1278;66319;-48
2022/03/02 01:16:44;;;;;;;28.20;19.80;;;;;;101795.33;;;;107069;1276;64874;-47
2022/03/02 01:19:11;;;;;;;27.70;20.30;;;;;;101792.54;;;;107096;1277;64767;-48
2022/03/02 01:21:38;;;;;;;27.70;20.20;;;;;;101792.11;;;;107061;1276;64779;-34
2022/03/02 01:24:06;;;;;;;30.30;20.60;;;;;;101787.58;;;;107101;1276;64808;-32
2022/03/02 01:26:36;;;;;;;30.80;22.00;;;;;;101787.45;;;;107106;1277;66099;-47
2022/03/02 01:29:04;;;;;;;30.70;20.80;;;;;;101783.14;;;;107100;1278;64892;-49
2022/03/02 01:31:32;;;;;;;29.00;20.30;;;;;;101780.51;;;;107117;1278;64754;-49
2022/03/02 01:33:59;;;;;;;28.80;20.40;;;;;;101778.81;;;;107060;1278;64854;-50
2022/03/02 01:36:26;;;;;;;28.20;20.60;;;;;;101776.61;;;;107086;1277;64761;-49
2022/03/02 01:38:53;;;;;;;28.90;20.60;;;;;;101775.88;;;;107049;1277;64920;-50
2022/03/02 01:41:25;;;;;;;28.20;20.10;;;;;;101777.34;;;;107060;1278;64927;-32
2022/03/02 01:43:55;;;;;;;28.30;19.70;;;;;;101774.86;;;;107093;1278;64797;-33
2022/03/02 01:46:23;;;;;;;29.00;20.70;;;;;;101772.77;;;;107076;1277;64875;-33
2022/03/02 01:48:51;;;;;;;27.20;19.60;;;;;;101768.21;;;;107089;1277;64875;-33
2022/03/02 01:51:19;;;;;;;27.70;20.40;;;;;;101765.83;;;;107018;1277;65005;-50
2022/03/02 01:53:47;;;;;;;27.90;19.70;;;;;;101764.63;;;;107101;1277;64865;-48
2022/03/02 01:56:15;;;;;;;27.80;20.10;;;;;;101761.94;;;;107123;1277;64969;-50
2022/03/02 01:58:45;;;;;;;27.00;19.50;;;;;;101761.30;;;;107101;1276;64773;-47
2022/03/02 02:01:13;;;;;;;28.00;20.80;;;;;;101756.63;;;;107123;1278;62346;-32
2022/03/02 02:03:41;;;;;;;25.80;19.00;;;;;;101753.05;;;;106968;1278;66452;-33
2022/03/02 02:06:08;;;;;;;25.40;19.20;;;;;;101750.09;;;;106930;1276;63537;-33
2022/03/02 02:08:36;;;;;;;26.30;19.90;;;;;;101750.14;;;;107081;1278;64733;-32
2022/03/02 02:11:04;;;;;;;23.80;19.40;;;;;;101747.66;;;;107070;1277;64885;-49
2022/03/02 02:13:34;;;;;;;24.90;19.00;;;;;;101742.41;;;;107125;1277;64777;-48
2022/03/02 02:16:04;;;;;;;26.70;19.60;;;;;;101740.59;;;;107108;1277;67050;-47
2022/03/02 02:18:32;;;;;;;27.10;19.80;;;;;;101737.27;;;;106952;1278;64940;-47
2022/03/02 02:21:08;;;;;;;25.90;19.10;;;;;;101733.83;;;;106999;1278;64792;-32
2022/03/02 02:23:37;;;;;;;27.90;19.70;;;;;;101733.69;;;;107075;1278;64782;-33
2022/03/02 02:26:07;;;;;;;27.80;19.50;;;;;;101730.74;;;;107119;1277;64427;-48
2022/03/02 02:28:34;;;;;;;28.40;19.40;;;;;;101727.84;;;;107084;1277;66920;-46
2022/03/02 02:31:02;;;;;;;25.80;18.80;;;;;;101724.52;;;;106982;1278;64801;-33
2022/03/02 02:33:30;;;;;;;24.60;19.30;;;;;;101719.44;;;;107119;1277;64849;-31
2022/03/02 02:35:59;;;;;;;25.60;19.70;;;;;;101717.48;;;;107123;1278;64839;-50
2022/03/02 02:38:27;;;;;;;29.40;19.60;;;;;;101717.76;;;;107137;1276;64853;-49
2022/03/02 02:40:54;;;;;;;25.20;18.50;;;;;;101719.80;;;;107124;1277;64923;-32
2022/03/02 02:43:24;;;;;;;25.90;19.50;;;;;;101718.67;;;;107076;1277;64885;-33
2022/03/02 02:45:53;;;;;;;26.30;19.50;;;;;;101712.95;;;;107065;1277;64840;-50
2022/03/02 02:48:21;;;;;;;28.30;20.00;;;;;;101717.30;;;;107089;1278;64839;-48
2022/03/02 02:50:49;;;;;;;27.10;20.30;;;;;;101716.09;;;;107107;1278;64781;-46
2022/03/02 02:53:16;;;;;;;26.90;19.10;;;;;;101716.11;;;;107138;1277;64887;-49
2022/03/02 02:55:46;;;;;;;26.20;18.80;;;;;;101714.11;;;;106933;1278;65083;-32
2022/03/02 02:58:13;;;;;;;24.00;18.70;;;;;;101712.39;;;;107088;1277;64847;-33
2022/03/02 03:00:46;;;;;;;26.10;19.20;;;;;;101714.48;;;;107092;1277;64882;-32
2022/03/02 03:03:14;;;;;;;28.00;19.20;;;;;;101717.27;;;;107101;1276;64761;-33
2022/03/02 03:05:41;;;;;;;25.70;19.50;;;;;;101714.00;;;;107023;1278;65222;-56
2022/03/02 03:08:12;;;;;;;25.40;18.90;;;;;;101710.63;;;;107075;1277;64964;-48
2022/03/02 03:10:42;;;;;;;25.10;19.10;;;;;;101708.90;;;;107086;1277;64857;-49
2022/03/02 03:13:09;;;;;;;27.90;19.30;;;;;;101708.60;;;;107083;1277;64853;-49
2022/03/02 03:15:38;;;;;;;24.30;18.80;;;;;;101708.70;;;;107086;1278;64989;-31
2022/03/02 03:18:06;;;;;;;24.70;18.40;;;;;;101706.61;;;;107129;1277;66488;-33
2022/03/02 03:20:35;;;;;;;26.50;19.80;;;;;;101705.34;;;;107112;1277;64885;-33
2022/03/02 03:23:03;;;;;;;26.60;18.50;;;;;;101700.61;;;;107092;1276;64850;-33
2022/03/02 03:25:31;;;;;;;25.80;18.90;;;;;;101700.29;;;;107103;1278;64704;-33
2022/03/02 03:27:58;;;;;;;26.60;19.60;;;;;;101696.16;;;;107125;1277;64865;-36
2022/03/02 03:30:26;;;;;;;24.80;18.50;;;;;;101691.94;;;;107031;1278;66107;-33
2022/03/02 03:32:54;;;;;;;25.60;19.10;;;;;;101687.21;;;;107101;1276;64859;-30
2022/03/02 03:35:26;;;;;;;27.90;20.00;;;;;;101684.66;;;;107089;1276;64595;-48
2022/03/02 03:37:54;;;;;;;24.80;18.20;;;;;;101686.58;;;;107100;1277;64976;-48
2022/03/02 03:40:22;;;;;;;24.60;19.00;;;;;;101681.52;;;;107072;1277;64895;-32
2022/03/02 03:42:52;;;;;;;22.50;18.20;;;;;;101680.02;;;;107114;1277;66169;-33
2022/03/02 03:45:20;;;;;;;26.10;19.60;;;;;;101675.56;;;;107073;1276;64757;-48
2022/03/02 03:47:47;;;;;;;25.90;18.70;;;;;;101673.61;;;;107089;1276;64897;-49
2022/03/02 03:50:15;;;;;;;26.20;19.00;;;;;;101673.92;;;;107094;1276;64787;-33
2022/03/02 03:52:43;;;;;;;23.20;18.20;;;;;;101671.77;;;;107112;1276;64790;-33
2022/03/02 03:55:12;;;;;;;26.10;19.20;;;;;;101671.92;;;;107079;1276;66372;-46
2022/03/02 03:57:40;;;;;;;26.30;19.60;;;;;;101673.23;;;;107111;1277;65942;-46
2022/03/02 04:00:12;;;;;;;26.20;19.00;;;;;;101670.80;;;;107086;1278;64757;-46
2022/03/02 04:02:40;;;;;;;25.70;18.50;;;;;;101670.13;;;;107101;1277;64894;-49
2022/03/02 04:05:08;;;;;;;25.70;19.50;;;;;;101665.09;;;;107015;1276;64732;-33
2022/03/02 04:07:36;;;;;;;25.60;19.10;;;;;;101661.72;;;;107138;1276;65900;-32
2022/03/02 04:10:06;;;;;;;26.30;19.30;;;;;;101662.23;;;;107077;1276;64783;-33
2022/03/02 04:12:35;;;;;;;24.30;18.50;;;;;;101659.16;;;;107102;1277;64763;-32
2022/03/02 04:15:04;;;;;;;26.10;18.80;;;;;;101657.75;;;;107074;1277;64857;-46
2022/03/02 04:17:32;;;;;;;25.00;18.70;;;;;;101658.27;;;;107111;1277;64994;-49
2022/03/02 04:19:59;;;;;;;24.80;18.00;;;;;;101658.96;;;;107076;1276;65109;-34
2022/03/02 04:22:26;;;;;;;25.20;18.30;;;;;;101657.69;;;;106989;1277;64807;-33
2022/03/02 04:24:53;;;;;;;25.60;19.10;;;;;;101656.74;;;;106948;1276;178453;-33
2022/03/02 04:27:21;;;;;;;23.30;17.80;;;;;;101654.48;;;;106974;1276;64783;-39
2022/03/02 04:29:48;;;;;;;27.00;19.90;;;;;;101657.91;;;;107083;1276;64851;-33
2022/03/02 04:32:15;;;;;;;24.40;19.00;;;;;;101655.23;;;;107066;1276;66417;-32
2022/03/02 04:34:43;;;;;;;26.60;18.50;;;;;;101654.34;;;;107074;1276;64964;-30
2022/03/02 04:37:10;;;;;;;26.90;18.70;;;;;;101651.36;;;;107070;1276;64871;-34
2022/03/02 04:39:37;;;;;;;27.40;18.80;;;;;;101650.47;;;;107077;1276;64882;-34
2022/03/02 04:42:05;;;;;;;26.10;18.40;;;;;;101652.61;;;;107085;1276;64888;-48
2022/03/02 04:44:32;;;;;;;27.00;19.50;;;;;;101651.55;;;;107121;1277;64931;-47
2022/03/02 04:46:59;;;;;;;26.30;18.40;;;;;;101653.17;;;;107093;1276;64789;-46
2022/03/02 04:49:26;;;;;;;26.10;19.30;;;;;;101657.16;;;;107101;1277;64855;-49
2022/03/02 04:51:53;;;;;;;25.30;18.90;;;;;;101656.25;;;;106977;1277;64879;-30
2022/03/02 04:57:08;;;;;;;25.30;19.20;;;;;;101649.81;;;;107015;1277;68902;-45
2022/03/02 04:59:35;;;;;;;27.50;19.30;;;;;;101649.43;;;;107083;1277;64898;-47
2022/03/02 05:02:03;;;;;;;29.60;20.10;;;;;;101644.16;;;;107063;1277;64758;-46
2022/03/02 05:04:30;;;;;;;26.30;19.00;;;;;;101646.10;;;;107015;1277;64854;-46
2022/03/02 05:06:57;;;;;;;25.10;18.30;;;;;;101642.90;;;;107108;1276;64768;-46
2022/03/02 05:09:24;;;;;;;26.20;19.60;;;;;;101643.89;;;;107104;1276;66461;-46
2022/03/02 05:11:51;;;;;;;25.60;19.70;;;;;;101640.13;;;;107109;1276;65510;-49
2022/03/02 05:14:19;;;;;;;25.60;19.00;;;;;;101640.58;;;;107065;1277;64794;-47
2022/03/02 05:16:46;;;;;;;24.70;19.40;;;;;;101642.17;;;;107070;1276;65674;-46
2022/03/02 05:19:13;;;;;;;26.90;19.10;;;;;;101638.71;;;;107104;1276;64904;-46
2022/03/02 05:21:40;;;;;;;25.50;20.50;;;;;;101632.19;;;;107105;1276;65292;-32
2022/03/02 05:24:07;;;;;;;24.60;19.10;;;;;;101630.84;;;;107001;1277;64739;-33
2022/03/02 05:26:35;;;;;;;25.30;19.40;;;;;;101631.30;;;;107094;1277;64912;-33
2022/03/02 05:29:02;;;;;;;25.20;18.50;;;;;;101632.22;;;;107070;1277;64811;-32
2022/03/02 05:31:29;;;;;;;25.30;18.90;;;;;;101630.52;;;;107103;1276;64968;-33
2022/03/02 05:33:57;;;;;;;27.80;20.00;;;;;;101629.25;;;;107096;1277;65312;-31
2022/03/02 05:36:25;;;;;;;28.60;19.50;;;;;;101628.02;;;;107065;1276;64963;-47
2022/03/02 05:38:53;;;;;;;25.70;18.50;;;;;;101625.76;;;;107098;1276;64745;-46
2022/03/02 05:41:21;;;;;;;28.20;19.40;;;;;;101619.79;;;;107025;1278;64805;-33
2022/03/02 05:43:50;;;;;;;28.20;19.40;;;;;;101619.27;;;;107167;1276;64792;-46
2022/03/02 05:46:17;;;;;;;26.00;19.60;;;;;;101617.30;;;;107122;1276;65294;-47
2022/03/02 05:48:44;;;;;;;25.40;19.30;;;;;;101616.39;;;;106992;1277;64941;-47
2022/03/02 05:51:11;;;;;;;25.50;19.80;;;;;;101616.80;;;;107001;1277;64850;-32
2022/03/02 05:53:38;;;;;;;26.90;19.40;;;;;;101619.73;;;;107066;1276;64973;-32
2022/03/02 05:56:06;;;;;;;26.20;19.60;;;;;;101619.86;;;;107014;1278;63649;-33
2022/03/02 05:58:33;;;;;;;27.40;20.30;;;;;;101618.90;;;;107082;1276;65969;-33
2022/03/02 06:01:02;;;;;;;26.80;19.30;;;;;;101615.54;;;;107037;1276;64868;-32
2022/03/02 06:03:31;;;;;;;26.50;19.20;;;;;;101615.64;;;;106999;1276;64844;-33
2022/03/02 06:06:00;;;;;;;27.60;19.50;;;;;;101615.91;;;;107014;1277;64939;-33
2022/03/02 06:08:28;;;;;;;23.70;18.40;;;;;;101614.93;;;;107047;1277;64914;-33
2022/03/02 06:10:56;;;;;;;24.00;19.70;;;;;;101617.84;;;;107095;1276;65846;-33
2022/03/02 06:13:23;;;;;;;27.30;19.80;;;;;;101614.91;;;;107092;1276;64781;-33
2022/03/02 06:15:51;;;;;;;27.50;20.50;;;;;;101617.98;;;;106952;1277;64876;-33
2022/03/02 06:18:19;;;;;;;24.10;18.80;;;;;;101619.24;;;;107001;1279;64881;-31
2022/03/02 06:20:50;;;;;;;26.90;21.00;;;;;;101621.02;;;;107016;1276;64705;-32
2022/03/02 06:23:21;;;;;;;26.90;19.70;;;;;;101620.77;;;;107093;1276;67662;-32
2022/03/02 06:25:50;;;;;;;27.50;20.70;;;;;;101621.45;;;;107059;1277;64883;-48
2022/03/02 06:28:17;;;;;;;24.30;19.60;;;;;;101622.20;;;;107084;1276;64897;-49
2022/03/02 06:30:44;;;;;;;26.50;20.30;;;;;;101622.97;;;;107067;1276;64916;-49
2022/03/02 06:33:14;;;;;;;28.70;19.50;;;;;;101622.56;;;;107089;1276;64965;-48
2022/03/02 06:35:42;;;;;;;25.80;19.90;;;;;;101621.19;;;;107003;1276;64929;-32
2022/03/02 06:38:09;;;;;;;27.10;20.10;;;;;;101620.02;;;;107004;1277;65272;-32
2022/03/02 06:40:39;;;;;;;26.70;19.60;;;;;;101618.00;;;;107079;1276;64680;-32
2022/03/02 06:43:14;;;;;;;28.10;19.80;;;;;;101615.00;;;;107075;1276;64758;-32
2022/03/02 06:45:54;;;;;;;26.70;19.60;;;;;;101613.75;;;;107081;1277;62174;-32
2022/03/02 06:48:53;;;;;;;25.90;20.20;;;;;;101617.95;;;;107059;1276;67344;-31
2022/03/02 06:51:23;;;;;;;27.20;20.70;;;;;;101613.43;;;;107006;1278;64884;-46
2022/03/02 06:53:51;;;;;;;25.10;19.20;;;;;;101612.94;;;;107101;1276;64782;-46
2022/03/02 06:56:20;;;;;;;26.70;19.60;;;;;;101610.14;;;;107121;1276;64908;-32
2022/03/02 06:58:54;;;;;;;23.30;19.10;;;;;;101610.39;;;;107107;1276;65093;-33
2022/03/02 07:01:33;;;;;;;24.60;19.00;;;;;;101608.29;;;;107125;1276;65851;-33
2022/03/02 07:04:01;;;;;;;24.10;18.70;;;;;;101602.52;;;;107095;1276;65309;-34
2022/03/02 07:06:29;;;;;;;26.70;19.10;;;;;;101602.02;;;;107124;1276;64910;-47
2022/03/02 07:08:57;;;;;;;24.70;19.30;;;;;;101598.96;;;;107030;1277;64874;-48
2022/03/02 07:11:25;;;;;;;26.10;20.40;;;;;;101595.17;;;;107074;1276;64889;-47
2022/03/02 07:13:52;;;;;;;25.80;19.80;;;;;;101597.52;;;;107033;1277;65871;-49
2022/03/02 07:16:22;;;;;;;25.50;20.10;;;;;;101596.81;;;;107062;1276;64870;-32
2022/03/02 07:18:51;;;;;;;25.50;19.20;;;;;;101594.22;;;;107079;1276;64902;-31
2022/03/02 07:21:21;;;;;;;24.30;18.90;;;;;;101599.14;;;;107073;1276;64893;-33
2022/03/02 07:24:06;;;;;;;25.30;20.00;;;;;;101600.08;;;;107030;1277;64598;-32
2022/03/02 07:26:34;;;;;;;24.10;19.80;;;;;;101594.62;;;;107098;1276;65936;-32
2022/03/02 07:29:02;;;;;;;23.90;19.00;;;;;;101595.06;;;;107064;1276;64893;-32
2022/03/02 07:31:30;;;;;;;25.60;19.00;;;;;;101598.48;;;;107105;1276;64902;-47
2022/03/02 07:34:02;;;;;;;27.90;19.60;;;;;;101595.80;;;;107100;1276;65608;-47
2022/03/02 07:36:31;;;;;;;25.50;19.80;;;;;;101594.67;;;;107095;1276;62461;-32
2022/03/02 07:38:59;;;;;;;26.60;19.60;;;;;;101594.91;;;;107091;1276;66504;-32
2022/03/02 07:41:27;;;;;;;23.50;18.40;;;;;;101592.71;;;;107009;1277;64755;-46
2022/03/02 07:43:54;;;;;;;25.10;19.30;;;;;;101593.89;;;;107062;1276;64863;-47
2022/03/02 07:46:21;;;;;;;25.80;18.70;;;;;;101591.09;;;;107060;1276;63797;-32
2022/03/02 07:48:49;;;;;;;23.80;18.00;;;;;;101589.48;;;;107066;1276;64751;-32
2022/03/02 07:51:16;;;;;;;25.90;20.10;;;;;;101585.46;;;;107092;1276;65378;-32
2022/03/02 07:53:48;;;;;;;23.00;18.40;;;;;;101580.25;;;;106989;1277;64881;-31
2022/03/02 07:56:18;;;;;;;22.30;18.30;;;;;;101581.79;;;;107114;1276;64885;-50
2022/03/02 07:58:46;;;;;;;24.70;19.20;;;;;;101577.85;;;;107047;1276;64745;-47
2022/03/02 08:01:20;;;;;;;25.00;19.20;;;;;;101574.65;;;;107080;1276;64745;-33
2022/03/02 08:03:47;;;;;;;25.50;18.60;;;;;;101569.73;;;;107115;1276;66251;-32
2022/03/02 08:06:15;;;;;;;23.40;18.30;;;;;;101570.40;;;;107038;1277;64860;-47
2022/03/02 08:08:43;;;;;;;25.40;18.90;;;;;;101566.50;;;;107006;1277;64874;-48
2022/03/02 08:11:10;;;;;;;23.60;18.10;;;;;;101559.88;;;;107092;1276;64976;-36
2022/03/02 08:13:37;;;;;;;24.40;18.70;;;;;;101553.90;;;;107069;1276;64588;-32
2022/03/02 08:16:05;;;;;;;23.30;18.10;;;;;;101550.71;;;;107091;1276;66221;-49
2022/03/02 08:18:32;;;;;;;23.30;18.30;;;;;;101550.72;;;;107066;1276;64873;-49
2022/03/02 08:21:00;;;;;;;24.30;18.20;;;;;;101553.21;;;;107105;1276;64972;-47
2022/03/02 08:23:38;;;;;;;23.40;18.30;;;;;;101552.01;;;;107059;1276;64763;-50
2022/03/02 08:26:06;;;;;;;25.10;18.80;;;;;;101548.33;;;;107093;1276;64863;-33
2022/03/02 08:28:36;;;;;;;24.80;18.50;;;;;;101548.52;;;;107077;1276;64910;-33
2022/03/02 08:31:04;;;;;;;23.20;18.20;;;;;;101549.60;;;;107102;1276;64753;-47
2022/03/02 08:33:35;;;;;;;24.10;17.20;;;;;;101547.69;;;;107066;1276;64858;-46
2022/03/02 08:36:03;;;;;;;23.90;18.40;;;;;;101549.73;;;;107102;1276;64883;-46
2022/03/02 08:38:32;;;;;;;24.70;17.50;;;;;;101552.21;;;;107048;1276;64869;-48
2022/03/02 08:41:00;;;;;;;27.40;18.10;;;;;;101551.30;;;;107129;1276;66931;-32
2022/03/02 08:43:27;;;;;;;28.20;19.40;;;;;;101539.76;;;;107056;1276;64933;-34
2022/03/02 08:45:54;;;;;;;24.40;17.90;;;;;;101532.66;;;;107061;1276;64966;-47
2022/03/02 08:48:22;;;;;;;25.60;18.10;;;;;;101528.23;;;;107043;1276;64873;-38
2022/03/02 08:50:51;;;;;;;24.10;18.30;;;;;;101521.41;;;;107108;1276;64742;-35
2022/03/02 08:53:18;;;;;;;23.60;16.40;;;;;;101521.41;;;;107113;1276;66018;-35
2022/03/02 08:55:48;;;;;;;21.10;15.70;;;;;;101519.83;;;;107005;1277;64866;-35
2022/03/02 08:58:15;;;;;;;19.00;14.80;;;;;;101517.98;;;;106979;1276;64928;-33
2022/03/02 09:00:43;;;;;;;18.80;14.10;;;;;;101513.54;;;;107053;1276;65133;-33
2022/03/02 09:03:15;;;;;;;19.50;15.30;;;;;;101517.91;;;;107100;1276;64895;-43
2022/03/02 09:05:43;;;;;;;18.10;13.60;;;;;;101516.69;;;;107093;1276;66415;-37
2022/03/02 09:08:10;;;;;;;18.90;13.70;;;;;;101512.19;;;;106983;1277;64784;-36
2022/03/02 09:10:37;;;;;;;17.70;13.00;;;;;;101507.87;;;;107039;1276;64748;-42
2022/03/02 09:13:05;;;;;;;18.30;12.80;;;;;;101500.02;;;;107008;1276;64905;-43
2022/03/02 09:15:34;;;;;;;17.90;12.40;;;;;;101498.71;;;;107013;1276;65115;-49
2022/03/02 09:18:01;;;;;;;19.50;12.60;;;;;;101496.44;;;;106994;1276;67527;-43
2022/03/02 09:20:30;;;;;;;15.10;11.70;;;;;;101490.60;;;;107046;1276;64745;-46
2022/03/02 09:23:01;;;;;;;13.90;10.60;;;;;;101489.90;;;;107063;1276;64852;-47
2022/03/02 09:25:30;;;;;;;14.80;10.60;;;;;;101493.39;;;;107046;1276;65593;-46
2022/03/02 09:27:58;;;;;;;14.10;10.40;;;;;;101492.61;;;;107127;1276;64971;-46
2022/03/02 09:30:25;;;;;;;14.20;9.60;;;;;;101490.64;;;;107075;1276;66453;-32
2022/03/02 09:32:54;;;;;;;14.60;9.80;;;;;;101489.36;;;;107091;1276;64852;-30
2022/03/02 09:35:22;;;;;;;13.50;9.20;;;;;;101486.84;;;;107094;1276;64871;-33
2022/03/02 09:37:51;;;;;;;11.60;8.90;;;;;;101484.62;;;;107076;1276;64911;-33
2022/03/02 09:40:30;;;;;;;13.90;9.50;;;;;;101478.28;;;;107010;1276;64591;-45
2022/03/02 09:43:01;;;;;;;12.90;8.70;;;;;;101468.71;;;;108795;1276;65877;-44
2022/03/02 09:45:32;;;;;;;12.20;8.20;;;;;;101466.67;;;;108805;1276;62929;-44
2022/03/02 09:48:04;;;;;;;11.70;7.80;;;;;;101461.98;;;;106853;1276;64827;-46
2022/03/02 09:50:35;;;;;;;12.20;8.30;;;;;;101460.63;;;;108795;1276;62948;-31
2022/03/02 09:53:12;;;;;;;10.20;7.60;;;;;;101457.84;;;;108264;1276;62758;-31
2022/03/02 09:55:41;;;;;;;10.90;7.80;;;;;;101458.81;;;;106951;1276;67374;-44
2022/03/02 09:58:13;;;;;;;11.00;7.70;;;;;;101457.39;;;;107085;1276;65064;-50
2022/03/02 10:00:43;;;;;;;10.50;7.40;;;;;;101454.80;;;;107076;1276;64787;-33
2022/03/02 10:03:11;;;;;;;11.30;7.50;;;;;;101452.35;;;;107003;1276;64897;-33
2022/03/02 10:05:43;;;;;;;11.10;7.40;;;;;;101446.73;;;;107109;1276;64824;-49
2022/03/02 10:08:10;;;;;;;11.10;7.40;;;;;;101443.73;;;;107084;1276;66142;-56
2022/03/02 10:10:40;;;;;;;11.30;7.50;;;;;;101443.20;;;;107108;1276;64886;-51
2022/03/02 10:13:14;;;;;;;10.20;6.70;;;;;;101440.52;;;;107104;1276;64794;-54
2022/03/02 10:15:42;;;;;;;10.80;7.50;;;;;;101435.92;;;;106993;1276;64901;-43
2022/03/02 10:18:13;;;;;;;11.10;6.60;;;;;;101435.61;;;;107123;1276;64766;-36
2022/03/02 10:20:49;;;;;;;9.50;6.40;;;;;;101433.77;;;;107097;1276;67510;-33
2022/03/02 10:23:32;;;;;;;11.10;7.50;;;;;;101434.61;;;;106931;1278;64764;-33
2022/03/02 10:26:11;;;;;;;9.10;6.50;;;;;;101427.78;;;;107038;1276;64817;-39
2022/03/02 10:29:07;;;;;;;9.20;6.00;;;;;;101422.11;;;;107039;1277;64892;-41
2022/03/02 10:32:09;;;;;;;9.00;6.30;;;;;;101416.11;;;;107081;1276;64794;-38
2022/03/02 10:34:50;;;;;;;10.10;6.10;;;;;;101409.55;;;;107005;1276;67380;-36
2022/03/02 10:37:40;;;;;;;10.10;6.20;;;;;;101405.03;;;;107103;1276;64787;-32
2022/03/02 10:40:21;;;;;;;8.70;5.80;;;;;;101400.27;;;;107104;1276;64876;-34
2022/03/02 10:42:59;;;;;;;8.50;5.70;;;;;;101397.96;;;;107075;1276;64810;-32
2022/03/02 10:45:43;;;;;;;9.20;5.80;;;;;;101396.46;;;;107137;1276;64774;-45
2022/03/02 10:48:24;;;;;;;8.40;5.90;;;;;;101397.56;;;;107039;1276;67395;-47
2022/03/02 10:50:54;;;;;;;8.10;5.60;;;;;;101395.55;;;;107085;1276;64594;-33
2022/03/02 10:53:26;;;;;;;9.00;5.90;;;;;;101394.93;;;;107087;1276;64850;-34
2022/03/02 10:55:58;;;;;;;8.40;5.90;;;;;;101390.25;;;;107019;1277;64013;-34
2022/03/02 10:58:29;;;;;;;9.10;6.00;;;;;;101385.26;;;;107011;1277;64876;-34
2022/03/02 11:01:01;;;;;;;9.60;6.30;;;;;;101384.73;;;;107083;1276;67359;-48
2022/03/02 11:03:36;;;;;;;9.30;6.60;;;;;;101379.79;;;;107123;1276;64763;-50
2022/03/02 11:06:09;;;;;;;8.90;6.10;;;;;;101375.25;;;;107001;1278;64750;-45
2022/03/02 11:08:36;;;;;;;9.50;6.70;;;;;;101367.46;;;;107028;1276;64806;-43
2022/03/02 11:11:08;;;;;;;9.60;6.40;;;;;;101361.60;;;;107048;1276;64770;-34
2022/03/02 11:13:36;;;;;;;8.90;5.90;;;;;;101356.18;;;;107054;1277;66095;-32
2022/03/02 11:16:05;;;;;;;9.10;6.30;;;;;;101352.98;;;;107040;1276;64876;-44
2022/03/02 11:18:42;;;;;;;10.10;6.30;;;;;;101353.71;;;;107036;1276;64887;-45
2022/03/02 11:21:21;;;;;;;8.60;5.60;;;;;;101351.73;;;;107047;1277;65422;-33
2022/03/02 11:23:55;;;;;;;10.40;6.40;;;;;;101354.32;;;;107054;1276;64763;-34
2022/03/02 11:26:28;;;;;;;9.00;5.80;;;;;;101356.21;;;;107040;1278;67633;-36
2022/03/02 11:29:00;;;;;;;9.60;5.80;;;;;;101346.48;;;;107119;1276;64809;-41
2022/03/02 11:31:31;;;;;;;10.00;6.20;;;;;;101336.81;;;;107049;1277;64897;-32
2022/03/02 11:34:16;;;;;;;10.00;6.40;;;;;;101334.10;;;;107063;1278;64790;-42
2022/03/02 11:36:50;;;;;;;10.00;6.50;;;;;;101331.39;;;;107045;1277;64750;-33
2022/03/02 11:39:21;;;;;;;9.80;6.60;;;;;;101329.89;;;;107036;1278;65891;-34
2022/03/02 11:41:57;;;;;;;11.80;7.70;;;;;;101329.11;;;;107018;1276;64895;-33
2022/03/02 11:44:34;;;;;;;14.20;8.50;;;;;;101327.27;;;;107026;1277;64892;-32
2022/03/02 11:47:07;;;;;;;13.70;10.50;;;;;;101322.00;;;;106996;1278;64951;-39
2022/03/02 11:49:38;;;;;;;;;;;;;;101319.00;;;;106909;1276;64829;-38
2022/03/02 11:52:14;;;;;;;28.90;18.60;;;;;;101320.16;;;;107024;1278;67708;-34
2022/03/02 11:54:51;;;;;;;52.60;30.40;;;;;;101314.59;;;;107021;1276;64840;-32
2022/03/02 11:57:23;;;;;;;55.80;35.60;;;;;;101311.02;;;;106996;1277;64883;-39
2022/03/02 12:00:19;;;;;;;58.90;36.50;;;;;;101308.85;;;;106999;1277;64742;-36
2022/03/02 12:02:58;;;;;;;77.80;44.30;;;;;;101300.08;;;;107030;1277;64791;-38
2022/03/02 12:05:32;;;;;;;69.40;44.30;;;;;;101293.73;;;;107094;1276;67656;-38
2022/03/02 12:08:03;;;;;;;70.90;42.20;;;;;;101294.69;;;;107081;1276;64977;-40
2022/03/02 12:10:34;;;;;;;68.80;41.80;;;;;;101290.20;;;;107066;1276;64862;-39
2022/03/02 12:13:02;;;;;;;72.90;42.20;;;;;;101285.20;;;;107100;1276;64893;-38
2022/03/02 12:15:47;;;;;;;68.10;40.30;;;;;;101282.74;;;;107120;1276;64864;-33
2022/03/02 12:18:17;;;;;;;65.40;40.70;;;;;;101279.89;;;;107105;1276;66022;-32
2022/03/02 12:20:54;;;;;;;61.20;39.30;;;;;;101280.73;;;;107109;1276;64858;-39
2022/03/02 12:23:32;;;;;;;60.30;37.60;;;;;;101274.54;;;;107073;1276;64732;-40
2022/03/02 12:26:04;;;;;;;62.00;38.10;;;;;;101270.42;;;;105816;1276;1736517;-33
2022/03/02 12:28:32;;;;;;;58.90;36.70;;;;;;101268.94;;;;107122;1276;64837;-32
2022/03/02 12:31:00;;;;;;;60.10;37.30;;;;;;101262.92;;;;107085;1276;66460;-34
2022/03/02 12:33:27;;;;;;;56.90;37.30;;;;;;101259.42;;;;106966;1278;64779;-35
2022/03/02 12:35:54;;;;;;;60.70;37.20;;;;;;101260.61;;;;107031;1276;64579;-34
2022/03/02 12:38:23;;;;;;;53.30;34.40;;;;;;101255.03;;;;106964;1277;64887;-36
2022/03/02 12:40:50;;;;;;;55.50;33.70;;;;;;101245.19;;;;107057;1277;64974;-31
2022/03/02 12:43:18;;;;;;;55.20;34.30;;;;;;101241.41;;;;107073;1276;66506;-33
2022/03/02 12:45:49;;;;;;;51.60;32.00;;;;;;101238.27;;;;107098;1276;64599;-32